Time,TemperatureF,DewpointF,PressureIn,WindDirection,WindDirectionDegrees,WindSpeedMPH,WindSpeedGustMPH,Humidity,HourlyPrecipIn,Conditions,Clouds,dailyrainin,SoftwareType,DateUTC
2013-02-20 00:00:00,34.7,33.7,29.69,WNW,289,3.6,4.0,96,0.00,,CLR,0.00,VWS V14.01,2013-02-20 08:00:00,
2013-02-20 00:05:00,34.9,33.9,29.69,WNW,290,2.7,3.1,96,0.00,,CLR,0.00,VWS V14.01,2013-02-20 08:05:00,
2013-02-20 00:11:00,34.7,33.9,29.69,WNW,290,3.1,4.5,97,0.00,,CLR,0.00,VWS V14.01,2013-02-20 08:11:00,
2013-02-20 00:16:00,34.9,33.9,29.72,WNW,289,0.0,0.0,96,0.00,,CLR,0.00,VWS V14.01,2013-02-20 08:16:00,
2013-02-20 00:21:00,34.3,33.6,29.72,WNW,289,4.0,4.5,97,0.00,,CLR,0.00,VWS V14.01,2013-02-20 08:21:00,
2013-02-20 00:26:00,34.2,33.4,29.72,WNW,289,2.7,4.5,97,0.00,,CLR,0.00,VWS V14.01,2013-02-20 08:26:00,
2013-02-20 00:31:00,34.3,33.6,29.72,WNW,289,3.1,3.6,97,0.00,,CLR,0.00,VWS V14.01,2013-02-20 08:31:00,
2013-02-20 00:36:00,34.2,33.4,29.72,WNW,289,4.0,4.5,97,0.00,,CLR,0.00,VWS V14.01,2013-02-20 08:36:00,
2013-02-20 00:41:00,34.2,33.4,29.72,WNW,289,3.1,3.1,97,0.00,,CLR,0.00,VWS V14.01,2013-02-20 08:41:00,
2013-02-20 00:46:00,34.0,33.2,29.72,WNW,289,3.6,3.6,97,0.00,,CLR,0.00,VWS V14.01,2013-02-20 08:46:00,
2013-02-20 00:51:00,33.8,33.0,29.72,WNW,289,0.0,0.0,97,0.00,,CLR,0.00,VWS V14.01,2013-02-20 08:51:00,
2013-02-20 00:56:00,33.6,32.9,29.72,WNW,289,3.1,3.6,97,0.00,,CLR,0.00,VWS V14.01,2013-02-20 08:56:00,
2013-02-20 01:01:00,33.6,32.9,29.72,WNW,289,4.5,4.9,97,0.00,,CLR,0.00,VWS V14.01,2013-02-20 09:01:00,
2013-02-20 01:06:00,33.4,32.7,29.72,WNW,289,0.0,3.1,97,0.00,,CLR,0.00,VWS V14.01,2013-02-20 09:06:00,
2013-02-20 01:11:00,33.4,32.7,29.72,WNW,289,3.1,3.6,97,0.00,,CLR,0.00,VWS V14.01,2013-02-20 09:11:00,
2013-02-20 01:16:00,33.3,32.5,29.72,WNW,289,0.0,0.0,97,0.00,,CLR,0.00,VWS V14.01,2013-02-20 09:16:00,
2013-02-20 01:21:00,33.3,32.5,29.72,WNW,289,0.0,0.0,97,0.00,,CLR,0.00,VWS V14.01,2013-02-20 09:21:00,
2013-02-20 01:26:00,33.3,32.5,29.72,WNW,289,0.0,0.0,97,0.00,,CLR,0.00,VWS V14.01,2013-02-20 09:26:00,
2013-02-20 01:31:00,33.1,32.3,29.72,WNW,289,0.0,0.0,97,0.00,,CLR,0.00,VWS V14.01,2013-02-20 09:31:00,
2013-02-20 01:36:00,32.7,32.0,29.72,WNW,290,0.0,0.0,97,0.00,,CLR,0.00,VWS V14.01,2013-02-20 09:36:00,
2013-02-20 01:41:00,32.7,32.0,29.72,WNW,289,0.0,0.0,97,0.00,,CLR,0.00,VWS V14.01,2013-02-20 09:41:00,
2013-02-20 01:46:00,32.4,31.6,29.72,WNW,290,3.6,4.0,97,0.00,,CLR,0.00,VWS V14.01,2013-02-20 09:46:00,
2013-02-20 01:51:00,32.0,31.2,29.72,WNW,289,4.5,4.9,97,0.00,,CLR,0.00,VWS V14.01,2013-02-20 09:51:00,
2013-02-20 01:56:00,32.2,31.4,29.72,WNW,289,4.0,4.0,97,0.00,,CLR,0.00,VWS V14.01,2013-02-20 09:56:00,
2013-02-20 02:01:00,32.0,31.2,29.72,WNW,289,4.9,4.9,97,0.00,,CLR,0.00,VWS V14.01,2013-02-20 10:01:00,
2013-02-20 02:06:00,32.0,31.2,29.72,WNW,289,4.5,4.9,97,0.00,,CLR,0.00,VWS V14.01,2013-02-20 10:06:00,
2013-02-20 02:11:00,32.0,31.2,29.72,WNW,289,4.0,4.9,97,0.00,,CLR,0.00,VWS V14.01,2013-02-20 10:11:00,
2013-02-20 02:16:00,31.8,31.1,29.72,WNW,289,4.0,4.0,97,0.00,,CLR,0.00,VWS V14.01,2013-02-20 10:16:00,
2013-02-20 02:22:00,31.8,31.1,29.72,WNW,289,4.0,4.0,97,0.00,,CLR,0.00,VWS V14.01,2013-02-20 10:22:00,
2013-02-20 02:27:00,31.6,30.9,29.72,WNW,289,0.0,3.1,97,0.00,,CLR,0.00,VWS V14.01,2013-02-20 10:27:00,
2013-02-20 02:32:00,31.8,31.1,29.72,WNW,289,0.0,0.0,97,0.00,,CLR,0.00,VWS V14.01,2013-02-20 10:32:00,
2013-02-20 02:37:00,31.6,30.9,29.72,WNW,289,0.0,0.0,97,0.00,,CLR,0.00,VWS V14.01,2013-02-20 10:37:00,
2013-02-20 02:42:00,31.5,30.7,29.72,WNW,289,0.0,0.0,97,0.00,,CLR,0.00,VWS V14.01,2013-02-20 10:42:00,
2013-02-20 02:47:00,31.6,30.9,29.72,WNW,290,0.0,0.0,97,0.00,,CLR,0.00,VWS V14.01,2013-02-20 10:47:00,
2013-02-20 02:52:00,31.5,30.7,29.72,WNW,290,0.0,0.0,97,0.00,,CLR,0.00,VWS V14.01,2013-02-20 10:52:00,
2013-02-20 02:57:00,31.1,30.4,29.72,WNW,289,0.0,0.0,97,0.00,,CLR,0.00,VWS V14.01,2013-02-20 10:57:00,
2013-02-20 03:02:00,30.9,30.2,29.72,WNW,290,0.0,0.0,97,0.00,,CLR,0.00,VWS V14.01,2013-02-20 11:02:00,
2013-02-20 03:07:00,30.6,29.8,29.72,WNW,289,0.0,0.0,97,0.00,,CLR,0.00,VWS V14.01,2013-02-20 11:07:00,
2013-02-20 03:12:00,30.2,29.5,29.72,WNW,289,0.0,0.0,97,0.00,,CLR,0.00,VWS V14.01,2013-02-20 11:12:00,
2013-02-20 03:17:00,30.4,29.6,29.72,WNW,289,0.0,0.0,97,0.00,,CLR,0.00,VWS V14.01,2013-02-20 11:17:00,
2013-02-20 03:22:00,29.8,29.1,29.72,WNW,289,0.0,0.0,97,0.00,,CLR,0.00,VWS V14.01,2013-02-20 11:22:00,
2013-02-20 03:28:00,30.2,29.5,29.72,WNW,289,0.0,0.0,97,0.00,,CLR,0.00,VWS V14.01,2013-02-20 11:28:00,
2013-02-20 03:33:00,30.0,29.3,29.72,WNW,289,0.0,0.0,97,0.00,,CLR,0.00,VWS V14.01,2013-02-20 11:33:00,
2013-02-20 03:38:00,29.7,28.9,29.72,WNW,289,3.6,4.0,97,0.00,,CLR,0.00,VWS V14.01,2013-02-20 11:38:00,
2013-02-20 03:43:00,29.5,28.7,29.72,WNW,290,2.7,3.6,97,0.00,,CLR,0.00,VWS V14.01,2013-02-20 11:43:00,
2013-02-20 03:48:00,29.7,28.9,29.72,WNW,289,0.0,0.0,97,0.00,,CLR,0.00,VWS V14.01,2013-02-20 11:48:00,
2013-02-20 03:53:00,29.5,28.5,29.72,WNW,289,0.0,0.0,96,0.00,,CLR,0.00,VWS V14.01,2013-02-20 11:53:00,
2013-02-20 03:58:00,29.3,28.6,29.72,WNW,290,0.0,0.0,97,0.00,,CLR,0.00,VWS V14.01,2013-02-20 11:58:00,
2013-02-20 04:03:00,29.5,28.5,29.72,WNW,289,0.0,0.0,96,0.00,,CLR,0.00,VWS V14.01,2013-02-20 12:03:00,
2013-02-20 04:08:00,29.3,28.3,29.72,WNW,289,0.0,0.0,96,0.00,,CLR,0.00,VWS V14.01,2013-02-20 12:08:00,
2013-02-20 04:13:00,28.8,27.8,29.72,WNW,289,4.5,4.5,96,0.00,,CLR,0.00,VWS V14.01,2013-02-20 12:13:00,
2013-02-20 04:18:00,28.8,27.8,29.72,WNW,290,0.0,0.0,96,0.00,,CLR,0.00,VWS V14.01,2013-02-20 12:18:00,
2013-02-20 04:23:00,29.1,28.1,29.72,WNW,289,0.0,0.0,96,0.00,,CLR,0.00,VWS V14.01,2013-02-20 12:23:00,
2013-02-20 04:28:00,29.3,28.3,29.72,WNW,290,0.0,0.0,96,0.00,,CLR,0.00,VWS V14.01,2013-02-20 12:28:00,
2013-02-20 04:34:00,28.9,27.9,29.75,WNW,290,0.0,0.0,96,0.00,,CLR,0.00,VWS V14.01,2013-02-20 12:34:00,
2013-02-20 04:39:00,28.8,27.8,29.75,WNW,289,0.0,0.0,96,0.00,,CLR,0.00,VWS V14.01,2013-02-20 12:39:00,
2013-02-20 04:44:00,28.2,27.2,29.75,WNW,289,0.0,0.0,96,0.00,,CLR,0.00,VWS V14.01,2013-02-20 12:44:00,
2013-02-20 04:49:00,28.2,27.2,29.75,WNW,289,0.0,0.0,96,0.00,,CLR,0.00,VWS V14.01,2013-02-20 12:49:00,
2013-02-20 04:54:00,28.6,27.6,29.75,WNW,289,0.0,0.0,96,0.00,,CLR,0.00,VWS V14.01,2013-02-20 12:54:00,
2013-02-20 04:59:00,28.0,27.0,29.75,WNW,289,0.0,0.0,96,0.00,,CLR,0.00,VWS V14.01,2013-02-20 12:59:00,
2013-02-20 05:04:00,28.2,27.0,29.75,WNW,289,0.0,0.0,95,0.00,,CLR,0.00,VWS V14.01,2013-02-20 13:04:00,
2013-02-20 05:09:00,27.9,26.6,29.75,WNW,289,2.7,3.6,95,0.00,,CLR,0.00,VWS V14.01,2013-02-20 13:09:00,
2013-02-20 05:14:00,27.9,26.6,29.75,WNW,289,0.0,0.0,95,0.00,,CLR,0.00,VWS V14.01,2013-02-20 13:14:00,
2013-02-20 05:19:00,27.7,26.4,29.75,WNW,289,0.0,0.0,95,0.00,,CLR,0.00,VWS V14.01,2013-02-20 13:19:00,
2013-02-20 05:24:00,27.3,26.1,29.75,WNW,289,4.0,4.9,95,0.00,,CLR,0.00,VWS V14.01,2013-02-20 13:24:00,
2013-02-20 05:29:00,27.7,26.2,29.75,WNW,289,0.0,0.0,94,0.00,,CLR,0.00,VWS V14.01,2013-02-20 13:29:00,
2013-02-20 05:34:00,27.5,26.0,29.75,WNW,289,3.1,3.6,94,0.00,,CLR,0.00,VWS V14.01,2013-02-20 13:34:00,
2013-02-20 05:39:00,27.3,25.8,29.75,WNW,289,0.0,3.1,94,0.00,,CLR,0.00,VWS V14.01,2013-02-20 13:39:00,
2013-02-20 05:45:00,27.1,25.6,29.78,WNW,288,4.5,4.5,94,0.00,,CLR,0.00,VWS V14.01,2013-02-20 13:45:00,
2013-02-20 05:50:00,27.1,25.6,29.78,WNW,290,4.5,4.5,94,0.00,,CLR,0.00,VWS V14.01,2013-02-20 13:50:00,
2013-02-20 05:55:00,27.3,25.8,29.78,WNW,289,0.0,0.0,94,0.00,,CLR,0.00,VWS V14.01,2013-02-20 13:55:00,
2013-02-20 06:00:00,27.3,25.8,29.78,WNW,290,0.0,0.0,94,0.00,,CLR,0.00,VWS V14.01,2013-02-20 14:00:00,
2013-02-20 06:05:00,27.3,25.8,29.78,WNW,288,0.0,0.0,94,0.00,,CLR,0.00,VWS V14.01,2013-02-20 14:05:00,
2013-02-20 06:10:00,27.1,25.6,29.78,WNW,289,0.0,2.7,94,0.00,,CLR,0.00,VWS V14.01,2013-02-20 14:10:00,
2013-02-20 06:15:00,27.3,25.8,29.78,WNW,289,0.0,0.0,94,0.00,,CLR,0.00,VWS V14.01,2013-02-20 14:15:00,
2013-02-20 06:20:00,27.0,25.5,29.78,WNW,289,0.0,0.0,94,0.00,,CLR,0.00,VWS V14.01,2013-02-20 14:20:00,
2013-02-20 06:25:00,26.8,25.0,29.78,WNW,290,0.0,0.0,93,0.00,,CLR,0.00,VWS V14.01,2013-02-20 14:25:00,
2013-02-20 06:30:00,26.8,25.0,29.78,WNW,290,0.0,0.0,93,0.00,,CLR,0.00,VWS V14.01,2013-02-20 14:30:00,
2013-02-20 06:35:00,26.8,25.0,29.78,WNW,289,3.6,4.0,93,0.00,,CLR,0.00,VWS V14.01,2013-02-20 14:35:00,
2013-02-20 06:40:00,26.1,24.1,29.78,WNW,289,3.1,4.0,92,0.00,,CLR,0.00,VWS V14.01,2013-02-20 14:40:00,
2013-02-20 06:45:00,26.1,24.1,29.78,WNW,289,0.0,0.0,92,0.00,,CLR,0.00,VWS V14.01,2013-02-20 14:45:00,
2013-02-20 06:51:00,26.2,24.2,29.78,WNW,288,0.0,0.0,92,0.00,,CLR,0.00,VWS V14.01,2013-02-20 14:51:00,
2013-02-20 06:56:00,26.4,24.4,29.78,WNW,289,0.0,0.0,92,0.00,,CLR,0.00,VWS V14.01,2013-02-20 14:56:00,
2013-02-20 07:01:00,26.2,24.2,29.78,WNW,289,0.0,0.0,92,0.00,,CLR,0.00,VWS V14.01,2013-02-20 15:01:00,
2013-02-20 07:06:00,26.2,24.2,29.78,WNW,289,0.0,0.0,92,0.00,,CLR,0.00,VWS V14.01,2013-02-20 15:06:00,
2013-02-20 07:11:00,26.6,24.6,29.78,WNW,289,0.0,0.0,92,0.00,,CLR,0.00,VWS V14.01,2013-02-20 15:11:00,
2013-02-20 07:16:00,26.4,24.4,29.78,WNW,289,0.0,0.0,92,0.00,,CLR,0.00,VWS V14.01,2013-02-20 15:16:00,
2013-02-20 07:21:00,26.6,24.6,29.78,WNW,289,0.0,0.0,92,0.00,,CLR,0.00,VWS V14.01,2013-02-20 15:21:00,
2013-02-20 07:26:00,26.4,24.4,29.78,WNW,289,0.0,3.1,92,0.00,,CLR,0.00,VWS V14.01,2013-02-20 15:26:00,
2013-02-20 07:31:00,26.8,24.8,29.78,WNW,288,0.0,0.0,92,0.00,,CLR,0.00,VWS V14.01,2013-02-20 15:31:00,
2013-02-20 07:36:00,27.3,25.6,29.78,WNW,289,0.0,2.7,93,0.00,,CLR,0.00,VWS V14.01,2013-02-20 15:36:00,
2013-02-20 07:41:00,28.0,26.3,29.78,WNW,289,3.1,4.0,93,0.00,,CLR,0.00,VWS V14.01,2013-02-20 15:41:00,
2013-02-20 07:46:00,28.6,26.8,29.78,WNW,289,0.0,0.0,93,0.00,,CLR,0.00,VWS V14.01,2013-02-20 15:46:00,
2013-02-20 07:51:00,29.5,27.7,29.78,WNW,289,0.0,0.0,93,0.00,,CLR,0.00,VWS V14.01,2013-02-20 15:51:00,
2013-02-20 07:57:00,30.2,28.7,29.78,WNW,289,0.0,0.0,94,0.00,,CLR,0.00,VWS V14.01,2013-02-20 15:57:00,
2013-02-20 08:02:00,31.3,29.8,29.81,NNW,327,0.0,0.0,94,0.00,,CLR,0.00,VWS V14.01,2013-02-20 16:02:00,
2013-02-20 08:07:00,31.8,30.5,29.81,NW,317,0.0,0.0,95,0.00,,CLR,0.00,VWS V14.01,2013-02-20 16:07:00,
2013-02-20 08:12:00,32.5,31.3,29.81,NW,315,2.7,3.6,95,0.00,,CLR,0.00,VWS V14.01,2013-02-20 16:12:00,
2013-02-20 08:17:00,33.1,31.8,29.81,NW,316,0.0,0.0,95,0.00,,CLR,0.00,VWS V14.01,2013-02-20 16:17:00,
2013-02-20 08:22:00,33.8,32.5,29.81,North,7,0.0,0.0,95,0.00,,CLR,0.00,VWS V14.01,2013-02-20 16:22:00,
2013-02-20 08:27:00,34.3,33.1,29.81,North,7,0.0,0.0,95,0.00,,CLR,0.00,VWS V14.01,2013-02-20 16:27:00,
2013-02-20 08:32:00,34.9,33.6,29.81,North,7,0.0,0.0,95,0.00,,CLR,0.00,VWS V14.01,2013-02-20 16:32:00,
2013-02-20 08:37:00,35.4,34.1,29.81,NW,317,4.9,4.9,95,0.00,,CLR,0.00,VWS V14.01,2013-02-20 16:37:00,
2013-02-20 08:42:00,36.0,34.7,29.81,NNW,327,6.9,7.4,95,0.00,,CLR,0.00,VWS V14.01,2013-02-20 16:42:00,
2013-02-20 08:47:00,36.7,35.4,29.81,NW,319,0.0,4.9,95,0.00,,CLR,0.00,VWS V14.01,2013-02-20 16:47:00,
2013-02-20 08:52:00,37.2,35.9,29.81,NW,319,0.0,0.0,95,0.00,,CLR,0.00,VWS V14.01,2013-02-20 16:52:00,
2013-02-20 08:57:00,38.1,36.8,29.81,NW,318,3.1,4.0,95,0.00,,CLR,0.00,VWS V14.01,2013-02-20 16:57:00,
2013-02-20 09:03:00,39.0,37.7,29.81,WNW,301,6.7,7.4,95,0.00,,CLR,0.00,VWS V14.01,2013-02-20 17:03:00,
2013-02-20 09:08:00,39.7,38.7,29.81,NW,320,5.8,6.3,96,0.00,,CLR,0.00,VWS V14.01,2013-02-20 17:08:00,
2013-02-20 09:13:00,40.3,39.0,29.81,WNW,299,7.4,10.1,95,0.00,,CLR,0.00,VWS V14.01,2013-02-20 17:13:00,
2013-02-20 09:18:00,40.3,39.0,29.81,NNW,339,6.9,6.9,95,0.00,,CLR,0.00,VWS V14.01,2013-02-20 17:18:00,
2013-02-20 09:23:00,41.0,39.1,29.81,NNW,330,4.9,5.4,93,0.00,,CLR,0.00,VWS V14.01,2013-02-20 17:23:00,
2013-02-20 09:28:00,41.7,39.6,29.81,West,267,4.5,6.3,92,0.04,,CLR,0.04,VWS V14.01,2013-02-20 17:28:00,
2013-02-20 09:33:00,42.4,40.0,29.81,West,275,5.8,7.4,91,0.04,,CLR,0.04,VWS V14.01,2013-02-20 17:33:00,
2013-02-20 09:38:00,42.8,40.1,29.81,West,280,4.9,5.4,90,0.04,,CLR,0.04,VWS V14.01,2013-02-20 17:38:00,
2013-02-20 09:43:00,41.9,38.0,29.81,North,351,2.7,4.9,86,0.04,,CLR,0.04,VWS V14.01,2013-02-20 17:43:00,
2013-02-20 09:48:00,43.2,37.1,29.84,WNW,295,4.0,6.7,79,0.04,,CLR,0.04,VWS V14.01,2013-02-20 17:48:00,
2013-02-20 09:53:00,43.7,36.3,29.84,NW,324,0.0,0.0,75,0.04,,CLR,0.04,VWS V14.01,2013-02-20 17:53:00,
2013-02-20 09:58:00,43.7,35.3,29.84,NW,324,0.0,0.0,72,0.04,,CLR,0.04,VWS V14.01,2013-02-20 17:58:00,
2013-02-20 10:03:00,45.3,36.1,29.84,WSW,257,0.0,3.1,70,0.04,,CLR,0.04,VWS V14.01,2013-02-20 18:03:00,
2013-02-20 10:09:00,45.7,35.7,29.84,WNW,287,4.5,4.5,68,0.04,,CLR,0.04,VWS V14.01,2013-02-20 18:09:00,
2013-02-20 10:14:00,46.2,36.3,29.84,NW,315,2.7,5.8,68,0.04,,CLR,0.04,VWS V14.01,2013-02-20 18:14:00,
2013-02-20 10:19:00,46.8,36.4,29.84,NW,319,3.6,6.7,67,0.04,,CLR,0.04,VWS V14.01,2013-02-20 18:19:00,
2013-02-20 10:25:00,46.9,32.1,29.84,NW,312,5.4,5.8,56,0.04,,CLR,0.04,VWS V14.01,2013-02-20 18:25:00,
2013-02-20 10:30:00,47.5,33.9,29.84,NW,317,0.0,0.0,59,0.00,,CLR,0.04,VWS V14.01,2013-02-20 18:30:00,
2013-02-20 10:35:00,48.0,34.4,29.84,NNW,332,3.1,4.9,59,0.00,,CLR,0.04,VWS V14.01,2013-02-20 18:35:00,
2013-02-20 10:40:00,48.7,33.8,29.84,WNW,284,5.4,5.4,56,0.00,,CLR,0.04,VWS V14.01,2013-02-20 18:40:00,
2013-02-20 10:45:00,48.9,33.5,29.84,WNW,284,6.3,9.2,55,0.00,,CLR,0.04,VWS V14.01,2013-02-20 18:45:00,
2013-02-20 10:50:00,49.5,34.0,29.84,West,276,3.1,4.9,55,0.00,,CLR,0.04,VWS V14.01,2013-02-20 18:50:00,
2013-02-20 10:55:00,49.6,34.2,29.84,WNW,298,7.4,9.2,55,0.00,,CLR,0.04,VWS V14.01,2013-02-20 18:55:00,
2013-02-20 11:00:00,49.8,32.4,29.84,WSW,244,5.4,6.9,51,0.00,,CLR,0.04,VWS V14.01,2013-02-20 19:00:00,
2013-02-20 11:05:00,50.2,33.7,29.84,NW,313,5.4,6.9,53,0.00,,CLR,0.04,VWS V14.01,2013-02-20 19:05:00,
2013-02-20 11:10:00,49.6,32.8,29.84,NW,324,5.8,6.7,52,0.00,,CLR,0.04,VWS V14.01,2013-02-20 19:10:00,
2013-02-20 11:16:00,49.8,34.3,29.84,West,259,4.0,5.8,55,0.00,,CLR,0.04,VWS V14.01,2013-02-20 19:16:00,
2013-02-20 11:21:00,50.4,34.8,29.84,NW,311,6.7,6.9,55,0.00,,CLR,0.04,VWS V14.01,2013-02-20 19:21:00,
2013-02-20 11:26:00,51.1,35.0,29.84,West,275,5.4,8.7,54,0.00,,CLR,0.04,VWS V14.01,2013-02-20 19:26:00,
2013-02-20 11:31:00,51.4,33.4,29.84,WNW,300,4.9,5.4,50,0.00,,CLR,0.04,VWS V14.01,2013-02-20 19:31:00,
2013-02-20 11:36:00,51.6,32.6,29.84,NNW,327,6.7,6.7,48,0.00,,CLR,0.04,VWS V14.01,2013-02-20 19:36:00,
2013-02-20 11:41:00,51.6,31.5,29.84,West,263,7.4,9.2,46,0.00,,CLR,0.04,VWS V14.01,2013-02-20 19:41:00,
2013-02-20 11:47:00,52.3,32.7,29.84,WSW,246,5.4,6.3,47,0.00,,CLR,0.04,VWS V14.01,2013-02-20 19:47:00,
2013-02-20 11:53:00,53.1,32.3,29.84,SW,235,4.5,7.4,45,0.00,,CLR,0.04,VWS V14.01,2013-02-20 19:53:00,
2013-02-20 11:58:00,53.6,33.3,29.84,WNW,288,3.1,5.8,46,0.00,,CLR,0.04,VWS V14.01,2013-02-20 19:58:00,
2013-02-20 12:03:00,54.0,32.6,29.84,WSW,247,5.8,7.4,44,0.00,,CLR,0.04,VWS V14.01,2013-02-20 20:03:00,
2013-02-20 12:08:00,54.3,33.5,29.84,WSW,251,4.5,8.7,45,0.00,,CLR,0.04,VWS V14.01,2013-02-20 20:08:00,
2013-02-20 12:14:00,54.9,31.6,29.84,West,269,8.3,9.6,41,0.00,,CLR,0.04,VWS V14.01,2013-02-20 20:14:00,
2013-02-20 12:19:00,55.4,30.9,29.84,WNW,284,9.2,9.6,39,0.00,,CLR,0.04,VWS V14.01,2013-02-20 20:19:00,
2013-02-20 12:24:00,55.6,31.0,29.84,WNW,295,10.5,11.2,39,0.00,,CLR,0.04,VWS V14.01,2013-02-20 20:24:00,
2013-02-20 12:29:00,55.2,30.1,29.84,NW,308,8.3,8.7,38,0.00,,CLR,0.04,VWS V14.01,2013-02-20 20:29:00,
2013-02-20 12:35:00,55.8,30.6,29.84,NNW,340,2.7,7.8,38,0.00,,CLR,0.04,VWS V14.01,2013-02-20 20:35:00,
2013-02-20 12:40:00,55.9,30.1,29.84,WNW,301,7.4,8.3,37,0.00,,CLR,0.04,VWS V14.01,2013-02-20 20:40:00,
2013-02-20 12:45:00,56.1,29.5,29.84,WNW,300,10.5,10.5,36,0.00,,CLR,0.04,VWS V14.01,2013-02-20 20:45:00,
2013-02-20 12:50:00,56.5,29.2,29.84,WNW,287,5.8,9.6,35,0.00,,CLR,0.04,VWS V14.01,2013-02-20 20:50:00,
2013-02-20 12:55:00,56.8,29.5,29.84,WNW,283,12.5,17.2,35,0.00,,CLR,0.04,VWS V14.01,2013-02-20 20:55:00,
2013-02-20 13:00:00,56.8,29.5,29.84,WSW,258,7.4,10.1,35,0.00,,CLR,0.04,VWS V14.01,2013-02-20 21:00:00,
2013-02-20 13:05:00,57.0,28.2,29.84,WNW,282,15.2,15.9,33,0.00,,CLR,0.04,VWS V14.01,2013-02-20 21:05:00,
2013-02-20 13:10:00,56.7,27.2,29.84,NW,315,10.1,15.2,32,0.00,,CLR,0.04,VWS V14.01,2013-02-20 21:10:00,
2013-02-20 13:15:00,56.7,27.9,29.84,NW,323,12.5,12.5,33,0.00,,CLR,0.04,VWS V14.01,2013-02-20 21:15:00,
2013-02-20 13:21:00,56.7,27.9,29.84,NW,304,10.1,11.0,33,0.00,,CLR,0.04,VWS V14.01,2013-02-20 21:21:00,
2013-02-20 13:26:00,56.5,27.8,29.84,WNW,294,15.4,15.4,33,0.00,,CLR,0.04,VWS V14.01,2013-02-20 21:26:00,
2013-02-20 13:31:00,56.8,28.8,29.84,NW,322,7.4,10.1,34,0.00,,CLR,0.04,VWS V14.01,2013-02-20 21:31:00,
2013-02-20 13:36:00,57.2,26.9,29.84,WNW,288,14.8,14.8,31,0.00,,CLR,0.04,VWS V14.01,2013-02-20 21:36:00,
2013-02-20 13:41:00,57.2,26.1,29.84,NNW,342,12.1,14.8,30,0.00,,CLR,0.04,VWS V14.01,2013-02-20 21:41:00,
2013-02-20 13:46:00,57.0,25.1,29.84,NNW,339,13.9,13.9,29,0.00,,CLR,0.04,VWS V14.01,2013-02-20 21:46:00,
2013-02-20 13:51:00,57.4,27.0,29.84,WNW,299,5.8,11.0,31,0.00,,CLR,0.04,VWS V14.01,2013-02-20 21:51:00,
2013-02-20 13:56:00,57.6,25.6,29.84,WNW,283,12.1,15.2,29,0.00,,CLR,0.04,VWS V14.01,2013-02-20 21:56:00,
2013-02-20 14:01:00,57.4,24.6,29.84,NNW,339,11.6,12.5,28,0.00,,CLR,0.04,VWS V14.01,2013-02-20 22:01:00,
2013-02-20 14:06:00,57.6,25.6,29.84,WNW,299,10.1,12.1,29,0.00,,CLR,0.04,VWS V14.01,2013-02-20 22:06:00,
2013-02-20 14:11:00,57.4,25.4,29.84,WNW,294,13.0,13.9,29,0.00,,CLR,0.04,VWS V14.01,2013-02-20 22:11:00,
2013-02-20 14:16:00,57.4,24.6,29.84,WNW,284,11.2,15.2,28,0.00,,CLR,0.04,VWS V14.01,2013-02-20 22:16:00,
2013-02-20 14:21:00,57.2,24.4,29.84,West,274,11.6,11.6,28,0.00,,CLR,0.04,VWS V14.01,2013-02-20 22:21:00,
2013-02-20 14:27:00,57.2,23.5,29.84,NW,321,11.2,13.4,27,0.00,,CLR,0.04,VWS V14.01,2013-02-20 22:27:00,
2013-02-20 14:32:00,57.2,22.6,29.81,NNW,339,8.7,13.0,26,0.00,,CLR,0.04,VWS V14.01,2013-02-20 22:32:00,
2013-02-20 14:37:00,57.2,23.5,29.81,West,275,8.7,8.7,27,0.00,,CLR,0.04,VWS V14.01,2013-02-20 22:37:00,
2013-02-20 14:42:00,57.6,23.9,29.81,NW,323,8.3,10.5,27,0.00,,CLR,0.04,VWS V14.01,2013-02-20 22:42:00,
2013-02-20 14:47:00,57.4,23.7,29.84,NW,307,10.1,15.9,27,0.00,,CLR,0.04,VWS V14.01,2013-02-20 22:47:00,
2013-02-20 14:52:00,57.0,22.5,29.84,WNW,283,17.2,17.2,26,0.00,,CLR,0.04,VWS V14.01,2013-02-20 22:52:00,
2013-02-20 14:57:00,56.8,22.3,29.84,West,279,11.6,12.5,26,0.00,,CLR,0.04,VWS V14.01,2013-02-20 22:57:00,
2013-02-20 15:03:00,56.8,22.3,29.84,NW,321,11.2,14.8,26,0.00,,CLR,0.04,VWS V14.01,2013-02-20 23:03:00,
2013-02-20 15:08:00,56.7,23.1,29.84,WNW,286,11.2,12.1,27,0.00,,CLR,0.04,VWS V14.01,2013-02-20 23:08:00,
2013-02-20 15:13:00,57.0,23.4,29.84,NNW,337,10.5,12.5,27,0.00,,CLR,0.04,VWS V14.01,2013-02-20 23:13:00,
2013-02-20 15:18:00,56.8,22.3,29.84,NNW,338,5.8,10.5,26,0.00,,CLR,0.04,VWS V14.01,2013-02-20 23:18:00,
2013-02-20 15:23:00,56.8,22.3,29.84,NNW,345,10.1,11.6,26,0.00,,CLR,0.04,VWS V14.01,2013-02-20 23:23:00,
2013-02-20 15:28:00,56.8,22.3,29.84,WNW,282,11.0,14.3,26,0.00,,CLR,0.04,VWS V14.01,2013-02-20 23:28:00,
2013-02-20 15:34:00,56.7,23.1,29.84,NNW,331,13.0,14.8,27,0.00,,CLR,0.04,VWS V14.01,2013-02-20 23:34:00,
2013-02-20 15:39:00,56.5,22.0,29.84,NNW,327,8.3,11.2,26,0.00,,CLR,0.04,VWS V14.01,2013-02-20 23:39:00,
2013-02-20 15:44:00,56.5,22.9,29.84,NW,308,8.7,9.6,27,0.00,,CLR,0.04,VWS V14.01,2013-02-20 23:44:00,
2013-02-20 15:49:00,56.7,23.1,29.84,NNW,329,12.5,14.3,27,0.00,,CLR,0.04,VWS V14.01,2013-02-20 23:49:00,
2013-02-20 15:54:00,56.3,21.9,29.84,North,351,12.5,13.0,26,0.00,,CLR,0.04,VWS V14.01,2013-02-20 23:54:00,
2013-02-20 15:59:00,56.3,22.8,29.84,West,277,7.8,7.8,27,0.00,,CLR,0.04,VWS V14.01,2013-02-20 23:59:00,
2013-02-20 16:04:00,56.3,22.8,29.84,WNW,295,14.3,14.3,27,0.00,,CLR,0.04,VWS V14.01,2013-02-21 00:04:00,
2013-02-20 16:09:00,56.1,22.6,29.84,NNW,335,9.6,13.9,27,0.00,,CLR,0.04,VWS V14.01,2013-02-21 00:09:00,
2013-02-20 16:14:00,55.9,22.5,29.84,NNW,347,13.9,15.2,27,0.00,,CLR,0.04,VWS V14.01,2013-02-21 00:14:00,
2013-02-20 16:19:00,55.9,22.5,29.84,NW,305,10.1,13.0,27,0.00,,CLR,0.04,VWS V14.01,2013-02-21 00:19:00,
2013-02-20 16:24:00,55.8,22.3,29.84,NNW,336,11.6,11.6,27,0.00,,CLR,0.04,VWS V14.01,2013-02-21 00:24:00,
2013-02-20 16:29:00,55.6,22.1,29.84,NNW,329,8.3,11.6,27,0.00,,CLR,0.04,VWS V14.01,2013-02-21 00:29:00,
2013-02-20 16:34:00,55.4,22.0,29.84,NW,309,10.5,13.4,27,0.00,,CLR,0.04,VWS V14.01,2013-02-21 00:34:00,
2013-02-20 16:40:00,55.0,21.7,29.84,WNW,298,6.9,9.6,27,0.00,,CLR,0.04,VWS V14.01,2013-02-21 00:40:00,
2013-02-20 16:45:00,55.0,21.7,29.84,NNW,339,8.7,12.1,27,0.00,,CLR,0.04,VWS V14.01,2013-02-21 00:45:00,
2013-02-20 16:50:00,54.7,21.4,29.84,NW,311,6.9,11.6,27,0.00,,CLR,0.04,VWS V14.01,2013-02-21 00:50:00,
2013-02-20 16:55:00,54.5,22.1,29.84,NW,317,5.4,9.2,28,0.00,,CLR,0.04,VWS V14.01,2013-02-21 00:55:00,
2013-02-20 17:00:00,54.3,22.8,29.84,WNW,284,5.8,6.7,29,0.00,,CLR,0.04,VWS V14.01,2013-02-21 01:00:00,
2013-02-20 17:06:00,54.0,22.5,29.84,WNW,289,4.9,5.4,29,0.00,,CLR,0.04,VWS V14.01,2013-02-21 01:06:00,
2013-02-20 17:11:00,53.6,22.1,29.84,WNW,294,12.1,12.1,29,0.00,,CLR,0.04,VWS V14.01,2013-02-21 01:11:00,
2013-02-20 17:16:00,53.2,21.8,29.84,WNW,301,5.4,6.3,29,0.00,,CLR,0.04,VWS V14.01,2013-02-21 01:16:00,
2013-02-20 17:21:00,52.7,22.2,29.84,NW,316,7.4,11.2,30,0.00,,CLR,0.04,VWS V14.01,2013-02-21 01:21:00,
2013-02-20 17:26:00,52.3,21.8,29.84,WNW,289,4.5,8.7,30,0.00,,CLR,0.04,VWS V14.01,2013-02-21 01:26:00,
2013-02-20 17:31:00,52.0,22.3,29.84,NW,311,4.9,4.9,31,0.00,,CLR,0.04,VWS V14.01,2013-02-21 01:31:00,
2013-02-20 17:36:00,51.4,22.6,29.84,WNW,297,3.1,4.5,32,0.00,,CLR,0.04,VWS V14.01,2013-02-21 01:36:00,
2013-02-20 17:42:00,50.5,25.2,29.84,WNW,297,0.0,0.0,37,0.00,,CLR,0.04,VWS V14.01,2013-02-21 01:42:00,
2013-02-20 17:47:00,48.9,25.7,29.87,WNW,297,0.0,0.0,40,0.00,,CLR,0.04,VWS V14.01,2013-02-21 01:47:00,
2013-02-20 17:52:00,47.8,26.4,29.87,WNW,297,0.0,0.0,43,0.00,,CLR,0.04,VWS V14.01,2013-02-21 01:52:00,
2013-02-20 17:57:00,46.8,27.1,29.87,WNW,297,2.7,4.0,46,0.00,,CLR,0.04,VWS V14.01,2013-02-21 01:57:00,
2013-02-20 18:02:00,46.0,27.5,29.87,WNW,298,0.0,0.0,48,0.00,,CLR,0.04,VWS V14.01,2013-02-21 02:02:00,
2013-02-20 18:07:00,45.3,27.8,29.87,WNW,297,3.1,4.5,50,0.00,,CLR,0.04,VWS V14.01,2013-02-21 02:07:00,
2013-02-20 18:12:00,44.2,27.3,29.87,WNW,297,2.7,3.6,51,0.00,,CLR,0.04,VWS V14.01,2013-02-21 02:12:00,
2013-02-20 18:17:00,44.2,28.7,29.87,WNW,296,4.0,4.5,54,0.00,,CLR,0.04,VWS V14.01,2013-02-21 02:17:00,
2013-02-20 18:22:00,44.6,32.0,29.87,SSE,148,5.4,5.4,61,0.00,,CLR,0.04,VWS V14.01,2013-02-21 02:22:00,
2013-02-20 18:27:00,43.9,28.8,29.87,SE,126,5.4,5.8,55,0.00,,CLR,0.04,VWS V14.01,2013-02-21 02:27:00,
2013-02-20 18:32:00,43.0,27.9,29.87,SE,125,4.5,4.9,55,0.00,,CLR,0.04,VWS V14.01,2013-02-21 02:32:00,
2013-02-20 18:37:00,42.4,27.4,29.87,SE,125,5.8,5.8,55,0.00,,CLR,0.04,VWS V14.01,2013-02-21 02:37:00,
2013-02-20 18:42:00,42.8,28.2,29.87,ESE,122,5.4,5.4,56,0.00,,CLR,0.04,VWS V14.01,2013-02-21 02:42:00,
2013-02-20 18:47:00,42.6,28.0,29.87,ESE,120,5.4,5.8,56,0.00,,CLR,0.04,VWS V14.01,2013-02-21 02:47:00,
2013-02-20 18:52:00,42.1,27.5,29.87,ESE,117,5.4,5.4,56,0.00,,CLR,0.04,VWS V14.01,2013-02-21 02:52:00,
2013-02-20 18:58:00,41.4,27.7,29.87,ESE,116,4.5,5.8,58,0.00,,CLR,0.04,VWS V14.01,2013-02-21 02:58:00,
2013-02-20 19:03:00,41.5,29.1,29.87,ESE,117,5.8,6.3,61,0.00,,CLR,0.04,VWS V14.01,2013-02-21 03:03:00,
2013-02-20 19:08:00,41.0,27.8,29.87,ESE,117,4.0,4.9,59,0.00,,CLR,0.04,VWS V14.01,2013-02-21 03:08:00,
2013-02-20 19:13:00,40.8,28.0,29.87,ESE,116,4.9,5.4,60,0.00,,CLR,0.04,VWS V14.01,2013-02-21 03:13:00,
2013-02-20 19:18:00,40.5,28.1,29.87,SE,124,6.3,6.3,61,0.00,,CLR,0.04,VWS V14.01,2013-02-21 03:18:00,
2013-02-20 19:23:00,40.1,28.1,29.87,ESE,120,5.8,6.7,62,0.00,,CLR,0.04,VWS V14.01,2013-02-21 03:23:00,
2013-02-20 19:28:00,39.7,28.2,29.87,ESE,121,5.8,6.7,63,0.00,,CLR,0.04,VWS V14.01,2013-02-21 03:28:00,
2013-02-20 19:33:00,39.4,27.9,29.87,ESE,116,6.7,6.7,63,0.00,,CLR,0.04,VWS V14.01,2013-02-21 03:33:00,
2013-02-20 19:38:00,39.4,28.2,29.87,ESE,110,4.9,6.3,64,0.00,,CLR,0.04,VWS V14.01,2013-02-21 03:38:00,
2013-02-20 19:44:00,39.2,27.7,29.90,ESE,108,5.4,5.8,63,0.00,,CLR,0.04,VWS V14.01,2013-02-21 03:44:00,
2013-02-20 19:49:00,39.7,28.6,29.90,ESE,118,4.9,5.4,64,0.00,,CLR,0.04,VWS V14.01,2013-02-21 03:49:00,
2013-02-20 19:54:00,39.0,27.5,29.90,ESE,121,6.3,6.9,63,0.00,,CLR,0.04,VWS V14.01,2013-02-21 03:54:00,
2013-02-20 19:59:00,38.1,27.4,29.90,SE,126,6.9,6.9,65,0.00,,CLR,0.04,VWS V14.01,2013-02-21 03:59:00,
2013-02-20 20:05:00,38.1,28.5,29.90,ESE,122,6.7,6.7,68,0.00,,CLR,0.04,VWS V14.01,2013-02-21 04:05:00,
2013-02-20 20:11:00,38.1,28.5,29.90,ESE,113,5.8,6.9,68,0.00,,CLR,0.04,VWS V14.01,2013-02-21 04:11:00,
2013-02-20 20:16:00,38.1,28.1,29.90,ESE,112,5.8,6.9,67,0.00,,CLR,0.04,VWS V14.01,2013-02-21 04:16:00,
2013-02-20 20:22:00,38.1,28.1,29.90,ESE,111,5.8,6.3,67,0.00,,CLR,0.04,VWS V14.01,2013-02-21 04:22:00,
2013-02-20 20:27:00,38.1,28.1,29.90,ESE,111,4.9,5.4,67,0.00,,CLR,0.04,VWS V14.01,2013-02-21 04:27:00,
2013-02-20 20:32:00,37.6,27.3,29.90,ESE,117,6.9,7.4,66,0.00,,CLR,0.04,VWS V14.01,2013-02-21 04:32:00,
2013-02-20 20:37:00,37.2,28.0,29.90,SE,124,6.3,6.3,69,0.00,,CLR,0.04,VWS V14.01,2013-02-21 04:37:00,
2013-02-20 20:42:00,37.0,27.5,29.90,ESE,110,4.0,5.4,68,0.00,,CLR,0.04,VWS V14.01,2013-02-21 04:42:00,
2013-02-20 20:47:00,37.4,28.2,29.90,ESE,114,4.9,6.3,69,0.00,,CLR,0.04,VWS V14.01,2013-02-21 04:47:00,
2013-02-20 20:53:00,37.0,27.8,29.90,ESE,122,6.7,7.4,69,0.00,,CLR,0.04,VWS V14.01,2013-02-21 04:53:00,
2013-02-20 20:58:00,36.7,27.1,29.90,ESE,111,6.3,6.9,68,0.00,,CLR,0.04,VWS V14.01,2013-02-21 04:58:00,
2013-02-20 21:00:00,36.7,27.8,29.90,ESE,119,6.7,6.9,70,0.00,,CLR,0.04,VWS V14.01,2013-02-21 05:00:00,
2013-02-20 21:01:00,36.7,28.2,29.90,ESE,121,6.3,6.9,71,0.00,,CLR,0.04,VWS V14.01,2013-02-21 05:01:00,
2013-02-20 21:04:00,36.7,27.8,29.90,ESE,116,5.4,6.3,70,0.00,,CLR,0.04,VWS V14.01,2013-02-21 05:04:00,
2013-02-20 21:09:00,36.5,27.7,29.90,ESE,118,6.3,6.9,70,0.00,,CLR,0.04,VWS V14.01,2013-02-21 05:09:00,
2013-02-20 21:14:00,36.7,27.8,29.90,ESE,117,6.3,6.3,70,0.00,,CLR,0.04,VWS V14.01,2013-02-21 05:14:00,
2013-02-20 21:15:00,36.5,27.7,29.90,ESE,116,4.9,6.3,70,0.00,,CLR,0.04,VWS V14.01,2013-02-21 05:15:00,
2013-02-20 21:20:00,36.3,27.8,29.90,ESE,111,6.7,6.7,71,0.00,,CLR,0.04,VWS V14.01,2013-02-21 05:20:00,
2013-02-20 21:25:00,36.7,28.2,29.90,ESE,110,6.7,6.9,71,0.00,,CLR,0.04,VWS V14.01,2013-02-21 05:25:00,
2013-02-20 21:30:00,36.7,27.8,29.90,ESE,115,5.8,6.7,70,0.00,,CLR,0.04,VWS V14.01,2013-02-21 05:30:00,
2013-02-20 21:36:00,36.3,27.8,29.90,ESE,113,5.8,6.7,71,0.00,,CLR,0.04,VWS V14.01,2013-02-21 05:36:00,
2013-02-20 21:41:00,36.1,27.7,29.90,ESE,114,6.3,6.9,71,0.00,,CLR,0.04,VWS V14.01,2013-02-21 05:41:00,
2013-02-20 21:46:00,36.0,27.8,29.93,ESE,121,5.4,6.3,72,0.00,,CLR,0.04,VWS V14.01,2013-02-21 05:46:00,
2013-02-20 21:51:00,35.8,27.3,29.93,ESE,116,4.5,5.4,71,0.00,,CLR,0.04,VWS V14.01,2013-02-21 05:51:00,
2013-02-20 21:57:00,35.2,27.1,29.93,ESE,112,5.4,5.8,72,0.00,,CLR,0.04,VWS V14.01,2013-02-21 05:57:00,
2013-02-20 22:02:00,36.0,28.5,29.93,SE,137,4.9,7.4,74,0.00,,CLR,0.04,VWS V14.01,2013-02-21 06:02:00,
2013-02-20 22:07:00,36.5,28.7,29.93,SE,130,6.3,6.7,73,0.00,,CLR,0.04,VWS V14.01,2013-02-21 06:07:00,
2013-02-20 22:12:00,36.5,28.0,29.93,SE,130,4.0,6.9,71,0.00,,CLR,0.04,VWS V14.01,2013-02-21 06:12:00,
2013-02-20 22:17:00,36.1,27.3,29.93,SE,128,4.9,6.3,70,0.00,,CLR,0.04,VWS V14.01,2013-02-21 06:17:00,
2013-02-20 22:22:00,35.4,26.3,29.93,SE,129,4.5,5.8,69,0.00,,CLR,0.04,VWS V14.01,2013-02-21 06:22:00,
2013-02-20 22:27:00,35.4,27.3,29.93,SE,129,5.8,5.8,72,0.00,,CLR,0.04,VWS V14.01,2013-02-21 06:27:00,
2013-02-20 22:32:00,34.9,26.8,29.93,ESE,115,5.8,5.8,72,0.00,,CLR,0.04,VWS V14.01,2013-02-21 06:32:00,
2013-02-20 22:37:00,34.9,27.5,29.93,ESE,112,4.9,6.3,74,0.00,,CLR,0.04,VWS V14.01,2013-02-21 06:37:00,
2013-02-20 22:43:00,35.2,28.1,29.93,SE,134,5.4,6.3,75,0.00,,CLR,0.04,VWS V14.01,2013-02-21 06:43:00,
2013-02-20 22:48:00,35.1,27.3,29.93,ESE,114,4.5,5.4,73,0.00,,CLR,0.04,VWS V14.01,2013-02-21 06:48:00,
2013-02-20 22:53:00,34.3,26.6,29.93,ESE,114,4.9,5.4,73,0.00,,CLR,0.04,VWS V14.01,2013-02-21 06:53:00,
2013-02-20 22:58:00,35.2,28.5,29.93,ESE,119,5.8,6.9,76,0.00,,CLR,0.04,VWS V14.01,2013-02-21 06:58:00,
2013-02-20 23:03:00,35.6,28.5,29.93,ESE,120,4.5,4.9,75,0.00,,CLR,0.04,VWS V14.01,2013-02-21 07:03:00,
2013-02-20 23:08:00,34.5,26.4,29.93,ESE,120,4.5,4.5,72,0.00,,CLR,0.04,VWS V14.01,2013-02-21 07:08:00,
2013-02-20 23:13:00,34.2,26.8,29.93,ESE,119,4.0,5.4,74,0.00,,CLR,0.04,VWS V14.01,2013-02-21 07:13:00,
2013-02-20 23:18:00,33.8,26.4,29.93,ESE,114,4.9,4.9,74,0.00,,CLR,0.04,VWS V14.01,2013-02-21 07:18:00,
2013-02-20 23:23:00,33.4,26.4,29.93,ESE,114,4.9,4.9,75,0.00,,CLR,0.04,VWS V14.01,2013-02-21 07:23:00,
2013-02-20 23:28:00,33.3,26.5,29.93,ESE,115,4.9,5.8,76,0.00,,CLR,0.04,VWS V14.01,2013-02-21 07:28:00,
2013-02-20 23:33:00,32.9,26.5,29.93,ESE,114,3.1,4.0,77,0.00,,CLR,0.04,VWS V14.01,2013-02-21 07:33:00,
2013-02-20 23:38:00,32.5,26.1,29.93,ESE,114,2.7,3.1,77,0.00,,CLR,0.04,VWS V14.01,2013-02-21 07:38:00,
2013-02-20 23:44:00,32.2,26.1,29.93,ESE,114,3.1,4.0,78,0.00,,CLR,0.04,VWS V14.01,2013-02-21 07:44:00,
2013-02-20 23:49:00,32.2,26.4,29.93,ESE,113,3.6,4.5,79,0.00,,CLR,0.04,VWS V14.01,2013-02-21 07:49:00,
2013-02-20 23:54:00,32.2,26.7,29.93,ESE,114,3.1,4.0,80,0.00,,CLR,0.04,VWS V14.01,2013-02-21 07:54:00,
2013-02-20 23:59:00,32.0,26.5,29.93,ESE,114,3.1,3.1,80,0.00,,CLR,0.00,VWS V14.01,2013-02-21 07:59:00,